sensor_id;sensor_type;location;lat;lon;timestamp;P1;durP1;ratioP1;P2;durP2;ratioP2
26407;SDS011;14583;43.604;1.364;2023-05-29T00:01:42;19.33;;;5.90;;
26407;SDS011;14583;43.604;1.364;2023-05-29T00:04:07;12.43;;;5.07;;
26407;SDS011;14583;43.604;1.364;2023-05-29T00:06:33;13.02;;;5.30;;
26407;SDS011;14583;43.604;1.364;2023-05-29T00:08:58;16.98;;;6.00;;
26407;SDS011;14583;43.604;1.364;2023-05-29T00:11:24;19.83;;;5.45;;
26407;SDS011;14583;43.604;1.364;2023-05-29T00:13:50;16.60;;;5.60;;
26407;SDS011;14583;43.604;1.364;2023-05-29T00:16:16;14.05;;;5.45;;
26407;SDS011;14583;43.604;1.364;2023-05-29T00:18:42;10.55;;;5.28;;
26407;SDS011;14583;43.604;1.364;2023-05-29T00:21:10;11.18;;;4.95;;
26407;SDS011;14583;43.604;1.364;2023-05-29T00:23:38;19.55;;;5.10;;
26407;SDS011;14583;43.604;1.364;2023-05-29T00:26:04;12.90;;;5.60;;
26407;SDS011;14583;43.604;1.364;2023-05-29T00:28:29;11.07;;;5.22;;
26407;SDS011;14583;43.604;1.364;2023-05-29T00:30:55;18.48;;;6.38;;
26407;SDS011;14583;43.604;1.364;2023-05-29T00:33:20;13.88;;;6.28;;
26407;SDS011;14583;43.604;1.364;2023-05-29T00:35:46;12.50;;;5.53;;
26407;SDS011;14583;43.604;1.364;2023-05-29T00:38:12;18.92;;;5.78;;
26407;SDS011;14583;43.604;1.364;2023-05-29T00:40:39;15.30;;;5.45;;
26407;SDS011;14583;43.604;1.364;2023-05-29T00:43:05;15.27;;;5.50;;
26407;SDS011;14583;43.604;1.364;2023-05-29T00:45:30;18.17;;;5.70;;
26407;SDS011;14583;43.604;1.364;2023-05-29T00:48:00;14.68;;;5.00;;
26407;SDS011;14583;43.604;1.364;2023-05-29T00:50:28;13.88;;;6.10;;
26407;SDS011;14583;43.604;1.364;2023-05-29T00:52:54;16.80;;;5.35;;
26407;SDS011;14583;43.604;1.364;2023-05-29T00:55:19;12.68;;;5.97;;
26407;SDS011;14583;43.604;1.364;2023-05-29T00:57:45;11.30;;;5.18;;
26407;SDS011;14583;43.604;1.364;2023-05-29T01:00:12;10.75;;;5.53;;
26407;SDS011;14583;43.604;1.364;2023-05-29T01:02:39;15.55;;;6.30;;
26407;SDS011;14583;43.604;1.364;2023-05-29T01:05:11;13.95;;;5.13;;
26407;SDS011;14583;43.604;1.364;2023-05-29T01:07:37;14.82;;;6.20;;
26407;SDS011;14583;43.604;1.364;2023-05-29T01:10:04;18.08;;;5.50;;
26407;SDS011;14583;43.604;1.364;2023-05-29T01:15:24;16.15;;;5.85;;
26407;SDS011;14583;43.604;1.364;2023-05-29T01:18:08;13.50;;;5.83;;
26407;SDS011;14583;43.604;1.364;2023-05-29T01:29:29;18.25;;;5.53;;
26407;SDS011;14583;43.604;1.364;2023-05-29T01:31:56;17.23;;;6.47;;
26407;SDS011;14583;43.604;1.364;2023-05-29T01:34:23;10.77;;;6.32;;
26407;SDS011;14583;43.604;1.364;2023-05-29T01:36:49;14.45;;;6.68;;
26407;SDS011;14583;43.604;1.364;2023-05-29T01:39:15;13.50;;;6.15;;
26407;SDS011;14583;43.604;1.364;2023-05-29T01:41:42;14.80;;;6.38;;
26407;SDS011;14583;43.604;1.364;2023-05-29T01:44:09;10.77;;;6.00;;
26407;SDS011;14583;43.604;1.364;2023-05-29T01:46:39;13.80;;;5.90;;
26407;SDS011;14583;43.604;1.364;2023-05-29T01:49:06;14.07;;;6.35;;
26407;SDS011;14583;43.604;1.364;2023-05-29T01:51:33;14.40;;;6.00;;
26407;SDS011;14583;43.604;1.364;2023-05-29T01:53:59;14.15;;;5.80;;
26407;SDS011;14583;43.604;1.364;2023-05-29T01:56:26;17.10;;;5.78;;
26407;SDS011;14583;43.604;1.364;2023-05-29T01:58:52;17.13;;;5.80;;
26407;SDS011;14583;43.604;1.364;2023-05-29T02:01:22;16.02;;;5.63;;
26407;SDS011;14583;43.604;1.364;2023-05-29T02:03:48;20.40;;;6.40;;
26407;SDS011;14583;43.604;1.364;2023-05-29T02:06:14;20.67;;;6.13;;
26407;SDS011;14583;43.604;1.364;2023-05-29T02:08:40;14.95;;;6.30;;
26407;SDS011;14583;43.604;1.364;2023-05-29T02:11:06;17.77;;;6.50;;
26407;SDS011;14583;43.604;1.364;2023-05-29T02:13:31;24.38;;;6.57;;
26407;SDS011;14583;43.604;1.364;2023-05-29T02:15:57;15.35;;;6.57;;
26407;SDS011;14583;43.604;1.364;2023-05-29T02:18:23;19.42;;;6.95;;
26407;SDS011;14583;43.604;1.364;2023-05-29T02:20:49;13.50;;;6.05;;
26407;SDS011;14583;43.604;1.364;2023-05-29T02:23:14;17.35;;;6.25;;
26407;SDS011;14583;43.604;1.364;2023-05-29T02:25:40;16.35;;;6.45;;
26407;SDS011;14583;43.604;1.364;2023-05-29T02:28:06;13.45;;;6.13;;
26407;SDS011;14583;43.604;1.364;2023-05-29T02:30:32;14.45;;;6.13;;
26407;SDS011;14583;43.604;1.364;2023-05-29T02:32:59;16.35;;;6.55;;
26407;SDS011;14583;43.604;1.364;2023-05-29T02:35:25;14.70;;;6.43;;
26407;SDS011;14583;43.604;1.364;2023-05-29T02:37:51;14.38;;;5.68;;
26407;SDS011;14583;43.604;1.364;2023-05-29T02:40:17;16.25;;;6.00;;
26407;SDS011;14583;43.604;1.364;2023-05-29T02:42:44;17.42;;;6.65;;
26407;SDS011;14583;43.604;1.364;2023-05-29T02:45:10;14.38;;;6.13;;
26407;SDS011;14583;43.604;1.364;2023-05-29T02:47:36;15.15;;;5.95;;
26407;SDS011;14583;43.604;1.364;2023-05-29T02:50:02;13.25;;;5.85;;
26407;SDS011;14583;43.604;1.364;2023-05-29T02:52:28;13.27;;;5.95;;
26407;SDS011;14583;43.604;1.364;2023-05-29T02:54:55;16.17;;;6.30;;
26407;SDS011;14583;43.604;1.364;2023-05-29T02:57:21;13.32;;;6.20;;
26407;SDS011;14583;43.604;1.364;2023-05-29T02:59:48;14.63;;;6.30;;
26407;SDS011;14583;43.604;1.364;2023-05-29T03:02:14;14.80;;;7.10;;
26407;SDS011;14583;43.604;1.364;2023-05-29T03:04:39;13.77;;;6.18;;
26407;SDS011;14583;43.604;1.364;2023-05-29T03:07:05;16.13;;;6.57;;
26407;SDS011;14583;43.604;1.364;2023-05-29T03:09:31;13.90;;;6.53;;
26407;SDS011;14583;43.604;1.364;2023-05-29T03:11:57;24.55;;;6.35;;
26407;SDS011;14583;43.604;1.364;2023-05-29T03:14:26;13.63;;;6.30;;
26407;SDS011;14583;43.604;1.364;2023-05-29T03:16:52;14.93;;;6.28;;
26407;SDS011;14583;43.604;1.364;2023-05-29T03:19:18;16.55;;;6.43;;
26407;SDS011;14583;43.604;1.364;2023-05-29T03:21:44;12.90;;;6.00;;
26407;SDS011;14583;43.604;1.364;2023-05-29T03:24:10;17.23;;;6.53;;
26407;SDS011;14583;43.604;1.364;2023-05-29T03:26:36;12.43;;;5.95;;
26407;SDS011;14583;43.604;1.364;2023-05-29T03:29:02;17.25;;;6.75;;
26407;SDS011;14583;43.604;1.364;2023-05-29T03:31:28;16.83;;;6.40;;
26407;SDS011;14583;43.604;1.364;2023-05-29T03:33:53;15.27;;;6.47;;
26407;SDS011;14583;43.604;1.364;2023-05-29T03:36:19;17.10;;;7.20;;
26407;SDS011;14583;43.604;1.364;2023-05-29T03:38:45;19.52;;;6.38;;
26407;SDS011;14583;43.604;1.364;2023-05-29T03:41:10;14.00;;;5.82;;
26407;SDS011;14583;43.604;1.364;2023-05-29T03:43:37;17.05;;;6.25;;
26407;SDS011;14583;43.604;1.364;2023-05-29T03:46:02;11.40;;;6.30;;
26407;SDS011;14583;43.604;1.364;2023-05-29T03:48:28;14.55;;;6.60;;
26407;SDS011;14583;43.604;1.364;2023-05-29T03:50:53;15.25;;;6.32;;
26407;SDS011;14583;43.604;1.364;2023-05-29T03:53:19;14.50;;;5.88;;
26407;SDS011;14583;43.604;1.364;2023-05-29T03:55:45;18.52;;;6.13;;
26407;SDS011;14583;43.604;1.364;2023-05-29T03:58:11;14.07;;;6.53;;
26407;SDS011;14583;43.604;1.364;2023-05-29T04:00:37;16.75;;;6.43;;
26407;SDS011;14583;43.604;1.364;2023-05-29T04:03:03;15.20;;;6.65;;
26407;SDS011;14583;43.604;1.364;2023-05-29T04:05:29;14.40;;;6.40;;
26407;SDS011;14583;43.604;1.364;2023-05-29T04:07:55;12.30;;;6.18;;
26407;SDS011;14583;43.604;1.364;2023-05-29T04:10:21;16.60;;;6.35;;
26407;SDS011;14583;43.604;1.364;2023-05-29T04:12:47;16.48;;;6.35;;
26407;SDS011;14583;43.604;1.364;2023-05-29T04:15:13;20.65;;;6.72;;
26407;SDS011;14583;43.604;1.364;2023-05-29T04:17:38;19.38;;;6.53;;
26407;SDS011;14583;43.604;1.364;2023-05-29T04:20:04;16.77;;;6.15;;
26407;SDS011;14583;43.604;1.364;2023-05-29T04:22:34;12.77;;;6.35;;
26407;SDS011;14583;43.604;1.364;2023-05-29T04:25:02;15.15;;;6.55;;
26407;SDS011;14583;43.604;1.364;2023-05-29T04:27:29;21.02;;;6.60;;
26407;SDS011;14583;43.604;1.364;2023-05-29T04:29:55;16.08;;;6.75;;
26407;SDS011;14583;43.604;1.364;2023-05-29T04:32:21;15.90;;;6.55;;
26407;SDS011;14583;43.604;1.364;2023-05-29T04:34:46;15.55;;;5.88;;
26407;SDS011;14583;43.604;1.364;2023-05-29T04:37:12;14.32;;;6.18;;
26407;SDS011;14583;43.604;1.364;2023-05-29T04:39:38;15.82;;;6.32;;
26407;SDS011;14583;43.604;1.364;2023-05-29T04:42:04;20.58;;;7.05;;
26407;SDS011;14583;43.604;1.364;2023-05-29T04:44:30;20.70;;;6.38;;
26407;SDS011;14583;43.604;1.364;2023-05-29T04:46:56;18.73;;;6.68;;
26407;SDS011;14583;43.604;1.364;2023-05-29T04:49:22;13.63;;;7.07;;
26407;SDS011;14583;43.604;1.364;2023-05-29T04:51:48;17.13;;;6.13;;
26407;SDS011;14583;43.604;1.364;2023-05-29T04:54:17;19.75;;;6.57;;
26407;SDS011;14583;43.604;1.364;2023-05-29T04:56:44;17.33;;;6.30;;
26407;SDS011;14583;43.604;1.364;2023-05-29T04:59:11;19.02;;;7.13;;
26407;SDS011;14583;43.604;1.364;2023-05-29T05:01:37;16.00;;;6.80;;
26407;SDS011;14583;43.604;1.364;2023-05-29T05:04:02;18.17;;;6.97;;
26407;SDS011;14583;43.604;1.364;2023-05-29T05:06:28;19.77;;;8.25;;
26407;SDS011;14583;43.604;1.364;2023-05-29T05:08:54;17.35;;;7.78;;
26407;SDS011;14583;43.604;1.364;2023-05-29T05:11:21;20.42;;;7.95;;
26407;SDS011;14583;43.604;1.364;2023-05-29T05:13:47;15.48;;;7.65;;
26407;SDS011;14583;43.604;1.364;2023-05-29T05:16:13;22.33;;;8.13;;
26407;SDS011;14583;43.604;1.364;2023-05-29T05:18:39;21.20;;;7.88;;
26407;SDS011;14583;43.604;1.364;2023-05-29T05:21:05;24.90;;;8.25;;
26407;SDS011;14583;43.604;1.364;2023-05-29T05:23:31;23.90;;;8.73;;
26407;SDS011;14583;43.604;1.364;2023-05-29T05:25:56;15.32;;;7.38;;
26407;SDS011;14583;43.604;1.364;2023-05-29T05:28:22;20.38;;;7.97;;
26407;SDS011;14583;43.604;1.364;2023-05-29T05:30:48;23.15;;;8.70;;
26407;SDS011;14583;43.604;1.364;2023-05-29T05:33:13;18.23;;;8.25;;
26407;SDS011;14583;43.604;1.364;2023-05-29T05:35:39;20.60;;;7.57;;
26407;SDS011;14583;43.604;1.364;2023-05-29T05:38:05;16.95;;;7.80;;
26407;SDS011;14583;43.604;1.364;2023-05-29T05:40:31;20.92;;;8.00;;
26407;SDS011;14583;43.604;1.364;2023-05-29T05:42:57;21.05;;;8.30;;
26407;SDS011;14583;43.604;1.364;2023-05-29T05:45:23;22.92;;;8.57;;
26407;SDS011;14583;43.604;1.364;2023-05-29T05:47:48;19.15;;;7.65;;
26407;SDS011;14583;43.604;1.364;2023-05-29T05:50:14;21.08;;;8.00;;
26407;SDS011;14583;43.604;1.364;2023-05-29T05:52:40;23.55;;;7.35;;
26407;SDS011;14583;43.604;1.364;2023-05-29T05:55:06;20.35;;;8.10;;
26407;SDS011;14583;43.604;1.364;2023-05-29T05:57:32;19.23;;;7.28;;
26407;SDS011;14583;43.604;1.364;2023-05-29T05:59:59;18.88;;;6.80;;
26407;SDS011;14583;43.604;1.364;2023-05-29T06:02:25;18.70;;;7.22;;
26407;SDS011;14583;43.604;1.364;2023-05-29T06:04:51;16.58;;;7.20;;
26407;SDS011;14583;43.604;1.364;2023-05-29T06:07:17;18.52;;;7.32;;
26407;SDS011;14583;43.604;1.364;2023-05-29T06:09:43;19.75;;;6.88;;
26407;SDS011;14583;43.604;1.364;2023-05-29T06:12:08;21.20;;;7.57;;
26407;SDS011;14583;43.604;1.364;2023-05-29T06:14:34;23.10;;;6.97;;
26407;SDS011;14583;43.604;1.364;2023-05-29T06:17:00;16.38;;;5.90;;
26407;SDS011;14583;43.604;1.364;2023-05-29T06:19:26;14.45;;;6.22;;
26407;SDS011;14583;43.604;1.364;2023-05-29T06:21:52;14.65;;;6.38;;
26407;SDS011;14583;43.604;1.364;2023-05-29T06:24:17;19.30;;;6.40;;
26407;SDS011;14583;43.604;1.364;2023-05-29T06:26:43;15.55;;;5.72;;
26407;SDS011;14583;43.604;1.364;2023-05-29T06:29:09;18.00;;;6.18;;
26407;SDS011;14583;43.604;1.364;2023-05-29T06:31:34;18.63;;;5.68;;
26407;SDS011;14583;43.604;1.364;2023-05-29T06:34:00;21.27;;;6.15;;
26407;SDS011;14583;43.604;1.364;2023-05-29T06:36:26;12.38;;;5.90;;
26407;SDS011;14583;43.604;1.364;2023-05-29T06:38:51;13.95;;;6.20;;
26407;SDS011;14583;43.604;1.364;2023-05-29T06:41:19;18.17;;;6.35;;
26407;SDS011;14583;43.604;1.364;2023-05-29T06:43:46;18.73;;;6.53;;
26407;SDS011;14583;43.604;1.364;2023-05-29T06:46:12;17.58;;;6.57;;
26407;SDS011;14583;43.604;1.364;2023-05-29T06:48:37;17.00;;;6.28;;
26407;SDS011;14583;43.604;1.364;2023-05-29T06:51:03;16.85;;;6.40;;
26407;SDS011;14583;43.604;1.364;2023-05-29T06:53:36;21.13;;;6.93;;
26407;SDS011;14583;43.604;1.364;2023-05-29T06:56:03;18.92;;;6.72;;
26407;SDS011;14583;43.604;1.364;2023-05-29T06:58:30;15.13;;;5.93;;
26407;SDS011;14583;43.604;1.364;2023-05-29T07:00:56;20.35;;;6.53;;
26407;SDS011;14583;43.604;1.364;2023-05-29T07:03:22;16.40;;;5.88;;
26407;SDS011;14583;43.604;1.364;2023-05-29T07:05:48;18.35;;;5.60;;
26407;SDS011;14583;43.604;1.364;2023-05-29T07:08:14;15.60;;;6.07;;
26407;SDS011;14583;43.604;1.364;2023-05-29T07:10:40;18.20;;;6.43;;
26407;SDS011;14583;43.604;1.364;2023-05-29T07:13:05;17.88;;;6.22;;
26407;SDS011;14583;43.604;1.364;2023-05-29T07:15:31;12.90;;;5.57;;
26407;SDS011;14583;43.604;1.364;2023-05-29T07:17:57;15.63;;;6.03;;
26407;SDS011;14583;43.604;1.364;2023-05-29T07:20:23;15.48;;;5.45;;
26407;SDS011;14583;43.604;1.364;2023-05-29T07:22:48;18.35;;;6.20;;
26407;SDS011;14583;43.604;1.364;2023-05-29T07:25:14;13.57;;;6.07;;
26407;SDS011;14583;43.604;1.364;2023-05-29T07:27:40;11.10;;;5.55;;
26407;SDS011;14583;43.604;1.364;2023-05-29T07:30:06;17.27;;;6.20;;
26407;SDS011;14583;43.604;1.364;2023-05-29T07:32:32;13.30;;;5.78;;
26407;SDS011;14583;43.604;1.364;2023-05-29T07:34:58;14.88;;;5.47;;
26407;SDS011;14583;43.604;1.364;2023-05-29T07:37:24;9.27;;;5.05;;
26407;SDS011;14583;43.604;1.364;2023-05-29T07:39:49;13.10;;;5.68;;
26407;SDS011;14583;43.604;1.364;2023-05-29T07:42:15;19.33;;;6.72;;
26407;SDS011;14583;43.604;1.364;2023-05-29T07:44:41;15.57;;;6.03;;
26407;SDS011;14583;43.604;1.364;2023-05-29T07:47:07;12.00;;;5.30;;
26407;SDS011;14583;43.604;1.364;2023-05-29T07:49:34;10.98;;;5.93;;
26407;SDS011;14583;43.604;1.364;2023-05-29T07:52:01;17.48;;;6.43;;
26407;SDS011;14583;43.604;1.364;2023-05-29T07:54:27;11.30;;;6.00;;
26407;SDS011;14583;43.604;1.364;2023-05-29T07:56:53;12.35;;;5.32;;
26407;SDS011;14583;43.604;1.364;2023-05-29T07:59:20;14.07;;;5.35;;
26407;SDS011;14583;43.604;1.364;2023-05-29T08:01:46;17.27;;;7.47;;
26407;SDS011;14583;43.604;1.364;2023-05-29T08:04:12;11.02;;;5.68;;
26407;SDS011;14583;43.604;1.364;2023-05-29T08:06:38;14.75;;;5.50;;
26407;SDS011;14583;43.604;1.364;2023-05-29T08:09:07;11.73;;;5.50;;
26407;SDS011;14583;43.604;1.364;2023-05-29T08:11:33;16.65;;;6.18;;
26407;SDS011;14583;43.604;1.364;2023-05-29T08:13:58;16.02;;;6.25;;
26407;SDS011;14583;43.604;1.364;2023-05-29T08:16:24;17.67;;;6.25;;
26407;SDS011;14583;43.604;1.364;2023-05-29T08:18:52;13.23;;;5.88;;
26407;SDS011;14583;43.604;1.364;2023-05-29T08:21:17;13.52;;;6.07;;
26407;SDS011;14583;43.604;1.364;2023-05-29T08:23:43;10.50;;;5.35;;
26407;SDS011;14583;43.604;1.364;2023-05-29T08:26:09;11.82;;;5.50;;
26407;SDS011;14583;43.604;1.364;2023-05-29T08:28:35;15.40;;;6.15;;
26407;SDS011;14583;43.604;1.364;2023-05-29T08:31:00;17.63;;;6.03;;
26407;SDS011;14583;43.604;1.364;2023-05-29T08:33:26;16.63;;;5.80;;
26407;SDS011;14583;43.604;1.364;2023-05-29T08:35:52;15.23;;;6.25;;
26407;SDS011;14583;43.604;1.364;2023-05-29T08:38:17;10.95;;;5.85;;
26407;SDS011;14583;43.604;1.364;2023-05-29T08:40:43;15.93;;;5.82;;
26407;SDS011;14583;43.604;1.364;2023-05-29T08:43:17;13.05;;;5.90;;
26407;SDS011;14583;43.604;1.364;2023-05-29T08:45:53;20.23;;;6.75;;
26407;SDS011;14583;43.604;1.364;2023-05-29T08:48:23;13.13;;;6.03;;
26407;SDS011;14583;43.604;1.364;2023-05-29T08:50:52;15.73;;;5.70;;
26407;SDS011;14583;43.604;1.364;2023-05-29T08:53:20;16.45;;;5.43;;
26407;SDS011;14583;43.604;1.364;2023-05-29T08:55:51;16.52;;;5.45;;
26407;SDS011;14583;43.604;1.364;2023-05-29T08:58:21;12.38;;;6.05;;
26407;SDS011;14583;43.604;1.364;2023-05-29T09:00:48;12.20;;;5.88;;
26407;SDS011;14583;43.604;1.364;2023-05-29T09:03:14;17.40;;;5.80;;
26407;SDS011;14583;43.604;1.364;2023-05-29T09:05:40;9.88;;;4.95;;
26407;SDS011;14583;43.604;1.364;2023-05-29T09:08:08;9.20;;;4.68;;
26407;SDS011;14583;43.604;1.364;2023-05-29T09:10:34;11.23;;;4.93;;
26407;SDS011;14583;43.604;1.364;2023-05-29T09:13:03;12.02;;;5.57;;
26407;SDS011;14583;43.604;1.364;2023-05-29T09:15:29;12.90;;;5.55;;
26407;SDS011;14583;43.604;1.364;2023-05-29T09:17:56;17.33;;;5.40;;
26407;SDS011;14583;43.604;1.364;2023-05-29T09:20:23;9.38;;;5.47;;
26407;SDS011;14583;43.604;1.364;2023-05-29T09:22:59;12.57;;;5.32;;
26407;SDS011;14583;43.604;1.364;2023-05-29T09:25:26;17.40;;;5.07;;
26407;SDS011;14583;43.604;1.364;2023-05-29T09:28:01;14.80;;;5.80;;
26407;SDS011;14583;43.604;1.364;2023-05-29T09:33:02;13.00;;;5.80;;
26407;SDS011;14583;43.604;1.364;2023-05-29T09:35:32;11.07;;;4.90;;
26407;SDS011;14583;43.604;1.364;2023-05-29T09:37:59;9.65;;;5.13;;
26407;SDS011;14583;43.604;1.364;2023-05-29T09:40:25;15.23;;;6.95;;
26407;SDS011;14583;43.604;1.364;2023-05-29T09:42:50;13.73;;;5.55;;
26407;SDS011;14583;43.604;1.364;2023-05-29T09:45:17;15.45;;;5.22;;
26407;SDS011;14583;43.604;1.364;2023-05-29T09:47:43;12.95;;;5.90;;
26407;SDS011;14583;43.604;1.364;2023-05-29T09:50:17;12.35;;;5.55;;
26407;SDS011;14583;43.604;1.364;2023-05-29T09:52:47;12.00;;;5.30;;
26407;SDS011;14583;43.604;1.364;2023-05-29T09:55:17;10.38;;;5.28;;
26407;SDS011;14583;43.604;1.364;2023-05-29T09:57:46;14.05;;;5.22;;
26407;SDS011;14583;43.604;1.364;2023-05-29T10:00:13;12.68;;;4.82;;
26407;SDS011;14583;43.604;1.364;2023-05-29T10:02:41;14.82;;;5.00;;
26407;SDS011;14583;43.604;1.364;2023-05-29T10:05:07;15.90;;;5.88;;
26407;SDS011;14583;43.604;1.364;2023-05-29T10:07:34;10.82;;;4.60;;
26407;SDS011;14583;43.604;1.364;2023-05-29T10:10:04;9.60;;;4.68;;
26407;SDS011;14583;43.604;1.364;2023-05-29T10:12:37;11.63;;;5.38;;
26407;SDS011;14583;43.604;1.364;2023-05-29T10:15:14;14.02;;;5.53;;
26407;SDS011;14583;43.604;1.364;2023-05-29T10:17:50;15.85;;;5.28;;
26407;SDS011;14583;43.604;1.364;2023-05-29T10:20:22;20.67;;;6.18;;
26407;SDS011;14583;43.604;1.364;2023-05-29T10:22:49;15.02;;;5.03;;
26407;SDS011;14583;43.604;1.364;2023-05-29T10:25:19;16.17;;;5.85;;
26407;SDS011;14583;43.604;1.364;2023-05-29T10:27:48;11.27;;;4.97;;
26407;SDS011;14583;43.604;1.364;2023-05-29T10:32:56;10.82;;;4.93;;
26407;SDS011;14583;43.604;1.364;2023-05-29T10:38:14;17.23;;;5.35;;
26407;SDS011;14583;43.604;1.364;2023-05-29T10:40:44;11.90;;;4.40;;
26407;SDS011;14583;43.604;1.364;2023-05-29T10:45:59;12.75;;;5.03;;
26407;SDS011;14583;43.604;1.364;2023-05-29T10:50:54;13.07;;;5.38;;
26407;SDS011;14583;43.604;1.364;2023-05-29T10:53:24;12.20;;;4.60;;
26407;SDS011;14583;43.604;1.364;2023-05-29T10:55:51;11.60;;;4.50;;
26407;SDS011;14583;43.604;1.364;2023-05-29T10:58:18;12.50;;;4.70;;
26407;SDS011;14583;43.604;1.364;2023-05-29T11:00:49;12.55;;;5.15;;
26407;SDS011;14583;43.604;1.364;2023-05-29T11:03:20;10.57;;;4.80;;
26407;SDS011;14583;43.604;1.364;2023-05-29T11:05:56;17.35;;;5.43;;
26407;SDS011;14583;43.604;1.364;2023-05-29T11:11:11;13.25;;;4.50;;
26407;SDS011;14583;43.604;1.364;2023-05-29T11:13:38;14.15;;;5.05;;
26407;SDS011;14583;43.604;1.364;2023-05-29T11:18:50;11.80;;;4.97;;
26407;SDS011;14583;43.604;1.364;2023-05-29T11:26:57;16.55;;;5.60;;
26407;SDS011;14583;43.604;1.364;2023-05-29T11:29:27;11.43;;;4.85;;
26407;SDS011;14583;43.604;1.364;2023-05-29T11:34:35;15.48;;;5.55;;
26407;SDS011;14583;43.604;1.364;2023-05-29T11:37:06;13.85;;;4.93;;
26407;SDS011;14583;43.604;1.364;2023-05-29T11:39:35;11.60;;;5.35;;
26407;SDS011;14583;43.604;1.364;2023-05-29T11:42:01;21.02;;;6.28;;
26407;SDS011;14583;43.604;1.364;2023-05-29T11:44:27;19.52;;;6.05;;
26407;SDS011;14583;43.604;1.364;2023-05-29T11:47:03;9.77;;;5.10;;
26407;SDS011;14583;43.604;1.364;2023-05-29T11:49:30;17.60;;;6.05;;
26407;SDS011;14583;43.604;1.364;2023-05-29T11:52:13;14.52;;;5.82;;
26407;SDS011;14583;43.604;1.364;2023-05-29T11:54:39;20.15;;;6.22;;
26407;SDS011;14583;43.604;1.364;2023-05-29T11:57:17;22.83;;;7.20;;
26407;SDS011;14583;43.604;1.364;2023-05-29T11:59:43;20.88;;;6.95;;
26407;SDS011;14583;43.604;1.364;2023-05-29T12:02:09;25.73;;;7.25;;
26407;SDS011;14583;43.604;1.364;2023-05-29T12:04:35;18.70;;;6.75;;
26407;SDS011;14583;43.604;1.364;2023-05-29T12:07:00;17.40;;;6.35;;
26407;SDS011;14583;43.604;1.364;2023-05-29T12:09:27;20.73;;;6.18;;
26407;SDS011;14583;43.604;1.364;2023-05-29T12:11:54;18.63;;;5.97;;
26407;SDS011;14583;43.604;1.364;2023-05-29T12:14:26;16.75;;;6.32;;
26407;SDS011;14583;43.604;1.364;2023-05-29T12:16:52;13.18;;;5.63;;
26407;SDS011;14583;43.604;1.364;2023-05-29T12:19:18;17.30;;;5.43;;
26407;SDS011;14583;43.604;1.364;2023-05-29T12:21:43;14.52;;;5.70;;
26407;SDS011;14583;43.604;1.364;2023-05-29T12:24:09;15.27;;;6.28;;
26407;SDS011;14583;43.604;1.364;2023-05-29T12:26:35;16.20;;;6.28;;
26407;SDS011;14583;43.604;1.364;2023-05-29T12:29:02;12.98;;;5.00;;
26407;SDS011;14583;43.604;1.364;2023-05-29T12:31:30;14.77;;;5.68;;
26407;SDS011;14583;43.604;1.364;2023-05-29T12:34:06;12.25;;;5.65;;
26407;SDS011;14583;43.604;1.364;2023-05-29T12:36:39;13.27;;;5.55;;
26407;SDS011;14583;43.604;1.364;2023-05-29T12:39:06;13.57;;;5.07;;
26407;SDS011;14583;43.604;1.364;2023-05-29T12:41:36;10.88;;;4.80;;
26407;SDS011;14583;43.604;1.364;2023-05-29T12:44:03;13.77;;;5.55;;
26407;SDS011;14583;43.604;1.364;2023-05-29T12:46:40;14.43;;;5.35;;
26407;SDS011;14583;43.604;1.364;2023-05-29T12:49:17;15.40;;;4.75;;
26407;SDS011;14583;43.604;1.364;2023-05-29T12:51:46;11.82;;;5.15;;
26407;SDS011;14583;43.604;1.364;2023-05-29T12:54:13;14.07;;;5.00;;
26407;SDS011;14583;43.604;1.364;2023-05-29T12:56:40;13.30;;;5.22;;
26407;SDS011;14583;43.604;1.364;2023-05-29T12:59:06;12.43;;;5.25;;
26407;SDS011;14583;43.604;1.364;2023-05-29T13:01:33;16.33;;;5.70;;
26407;SDS011;14583;43.604;1.364;2023-05-29T13:03:59;14.48;;;4.78;;
26407;SDS011;14583;43.604;1.364;2023-05-29T13:06:24;15.23;;;5.38;;
26407;SDS011;14583;43.604;1.364;2023-05-29T13:08:51;15.10;;;5.20;;
26407;SDS011;14583;43.604;1.364;2023-05-29T13:11:17;17.90;;;6.25;;
26407;SDS011;14583;43.604;1.364;2023-05-29T13:13:43;17.42;;;5.88;;
26407;SDS011;14583;43.604;1.364;2023-05-29T13:16:09;18.83;;;7.80;;
26407;SDS011;14583;43.604;1.364;2023-05-29T13:18:35;15.02;;;5.55;;
26407;SDS011;14583;43.604;1.364;2023-05-29T13:21:01;16.67;;;5.60;;
26407;SDS011;14583;43.604;1.364;2023-05-29T13:23:26;18.25;;;5.78;;
26407;SDS011;14583;43.604;1.364;2023-05-29T13:25:52;16.38;;;5.30;;
26407;SDS011;14583;43.604;1.364;2023-05-29T13:28:18;12.30;;;5.40;;
26407;SDS011;14583;43.604;1.364;2023-05-29T13:30:43;13.73;;;4.72;;
26407;SDS011;14583;43.604;1.364;2023-05-29T13:33:09;14.20;;;5.22;;
26407;SDS011;14583;43.604;1.364;2023-05-29T13:35:35;14.95;;;5.45;;
26407;SDS011;14583;43.604;1.364;2023-05-29T13:38:01;19.27;;;5.15;;
26407;SDS011;14583;43.604;1.364;2023-05-29T13:40:27;16.45;;;5.10;;
26407;SDS011;14583;43.604;1.364;2023-05-29T13:42:53;20.08;;;5.18;;
26407;SDS011;14583;43.604;1.364;2023-05-29T13:45:19;11.13;;;6.75;;
26407;SDS011;14583;43.604;1.364;2023-05-29T13:47:45;16.08;;;4.95;;
26407;SDS011;14583;43.604;1.364;2023-05-29T13:50:11;17.25;;;4.82;;
26407;SDS011;14583;43.604;1.364;2023-05-29T13:52:37;12.73;;;4.95;;
26407;SDS011;14583;43.604;1.364;2023-05-29T13:55:07;14.70;;;5.60;;
26407;SDS011;14583;43.604;1.364;2023-05-29T13:57:34;11.23;;;4.72;;
26407;SDS011;14583;43.604;1.364;2023-05-29T14:00:01;12.23;;;4.45;;
26407;SDS011;14583;43.604;1.364;2023-05-29T14:02:30;13.52;;;4.80;;
26407;SDS011;14583;43.604;1.364;2023-05-29T14:04:56;14.55;;;5.40;;
26407;SDS011;14583;43.604;1.364;2023-05-29T14:07:22;18.70;;;5.30;;
26407;SDS011;14583;43.604;1.364;2023-05-29T14:09:48;10.02;;;4.47;;
26407;SDS011;14583;43.604;1.364;2023-05-29T14:12:13;12.68;;;4.70;;
26407;SDS011;14583;43.604;1.364;2023-05-29T14:14:39;14.48;;;4.90;;
26407;SDS011;14583;43.604;1.364;2023-05-29T14:17:05;14.48;;;4.32;;
26407;SDS011;14583;43.604;1.364;2023-05-29T14:19:31;12.48;;;4.82;;
26407;SDS011;14583;43.604;1.364;2023-05-29T14:21:57;9.73;;;4.15;;
26407;SDS011;14583;43.604;1.364;2023-05-29T14:24:29;14.63;;;4.90;;
26407;SDS011;14583;43.604;1.364;2023-05-29T14:26:55;10.23;;;4.57;;
26407;SDS011;14583;43.604;1.364;2023-05-29T14:29:21;13.50;;;4.75;;
26407;SDS011;14583;43.604;1.364;2023-05-29T14:31:46;13.90;;;4.35;;
26407;SDS011;14583;43.604;1.364;2023-05-29T14:34:12;13.57;;;4.47;;
26407;SDS011;14583;43.604;1.364;2023-05-29T14:36:40;18.08;;;4.80;;
26407;SDS011;14583;43.604;1.364;2023-05-29T14:39:09;12.85;;;4.53;;
26407;SDS011;14583;43.604;1.364;2023-05-29T14:41:35;12.07;;;5.40;;
26407;SDS011;14583;43.604;1.364;2023-05-29T14:44:01;11.35;;;4.90;;
26407;SDS011;14583;43.604;1.364;2023-05-29T14:46:30;14.93;;;4.93;;
26407;SDS011;14583;43.604;1.364;2023-05-29T14:48:59;13.50;;;4.50;;
26407;SDS011;14583;43.604;1.364;2023-05-29T14:51:25;12.55;;;4.75;;
26407;SDS011;14583;43.604;1.364;2023-05-29T14:53:54;13.70;;;4.32;;
26407;SDS011;14583;43.604;1.364;2023-05-29T14:56:25;12.85;;;4.68;;
26407;SDS011;14583;43.604;1.364;2023-05-29T14:58:54;13.57;;;4.97;;
26407;SDS011;14583;43.604;1.364;2023-05-29T15:01:19;14.07;;;4.75;;
26407;SDS011;14583;43.604;1.364;2023-05-29T15:03:45;9.98;;;4.32;;
26407;SDS011;14583;43.604;1.364;2023-05-29T15:06:11;10.88;;;4.50;;
26407;SDS011;14583;43.604;1.364;2023-05-29T15:08:37;17.55;;;4.38;;
26407;SDS011;14583;43.604;1.364;2023-05-29T15:11:04;21.38;;;5.00;;
26407;SDS011;14583;43.604;1.364;2023-05-29T15:13:31;15.82;;;4.90;;